Nearby METAR Reports

Here are local weather reports from nearby weather stations and airports.

KHFD - Hartford/Brainar, Connecticut, USA
Distance from station: NE 5mi, 8km
Updated: Mon, 09/20/21 12:53am EDT
Clear
Clear
 Wind from calm
Wind: Calm
Temperature: 57°F , 14°C
Dew Point: 55°F , 13°C
Humidity: 94%
Barometer: 30.25 inHg , 1024.4 hPa
Clouds: Clear
Visibility: 10 miles , 16 km
2021/09/20 04:53 KHFD 200453Z AUTO 00000KT 10SM CLR 14/13 A3025 RMK AO2 SLP244 T01440128 402440144
KMMK - Meriden, Connecticut, USA
Distance from station: SSW 13mi, 21km
Updated: Mon, 09/20/21 12:53am EDT
Clear
Clear
 Wind from WNW
Wind: WNW 3 mph , 6 km/h
Temperature: 55°F , 13°C
Dew Point: 54°F , 12°C
Humidity: 94%
Barometer: 30.26 inHg , 1024.7 hPa
Clouds: Clear
Visibility: 10 miles , 16 km
2021/09/20 04:53 KMMK 200453Z AUTO 30003KT 10SM CLR 13/12 A3026 RMK AO2 SLP245 T01330117 402440122
 
KBDL - Windsor Locks, Connecticut, USA
Distance from station: N 17mi, 28km
Updated: Mon, 09/20/21 12:51am EDT
Clear
Clear
 Wind from NW
Wind: NW 3 mph , 6 km/h
Temperature: 55°F , 13°C
Dew Point: 54°F , 12°C
Humidity: 94%
Barometer: 30.26 inHg , 1024.7 hPa
Clouds: Clear
Visibility: 10 miles , 16 km
2021/09/20 04:51 KBDL 200451Z 32003KT 10SM CLR 13/12 A3026 RMK AO2 SLP246 T01280117 402390128
KSNC - Chester, Connecticut, USA
Distance from station: SSE 24mi, 38km
Updated: Mon, 09/20/21 1:35am EDT
Clear
Clear
 Wind from calm
Wind: Calm
Temperature: 55°F , 13°C
Dew Point: 55°F , 13°C
Humidity: 100%
Barometer: 30.26 inHg , 1024.7 hPa
Clouds: Clear
Visibility: 10 miles , 16 km
2021/09/20 05:35 KSNC 200535Z AUTO 00000KT 10SM CLR 13/13 A3026 RMK AO2
 
KOXC - Oxford/Waterbury, Connecticut, USA
Distance from station: SW 26mi, 42km
Updated: Mon, 09/20/21 1:51am EDT
Clear
Clear
 Wind from calm
Wind: Calm
Temperature: 54°F , 12°C
Dew Point: 54°F , 12°C
Humidity: 100%
Barometer: 30.27 inHg , 1025.1 hPa
Clouds: Clear
Visibility: 10 miles , 16 km
2021/09/20 05:51 KOXC 200551Z AUTO 00000KT 10SM CLR 12/12 A3027 RMK AO2 SLP262 T01220117 10161 20122 51006
KIJD - Willimantic, Connecticut, USA
Distance from station: E 28mi, 45km
Updated: Mon, 09/20/21 1:47am EDT
Fog, Overcast
Fog, Overcast
 Wind from N
Wind: N 3 mph , 6 km/h
Temperature: 54°F , 12°C
Dew Point: 54°F , 12°C
Humidity: 100%
Barometer: 30.28 inHg , 1025.4 hPa
Summary: Fog
Clouds: Overcast
Visibility: 1/2 mile , 0.8 km
Cloud details: Overcast 200 ft
2021/09/20 05:47 KIJD 200547Z AUTO 36003KT 1/2SM FG OVC002 12/12 A3028 RMK AO2
 
KHVN - New Haven/Tweed, Connecticut, USA
Distance from station: SSW 30mi, 48km
Updated: Mon, 09/20/21 12:53am EDT
Clear
Clear
 Wind from calm
Wind: Calm
Temperature: 57°F , 14°C
Dew Point: 54°F , 12°C
Humidity: 88%
Barometer: 30.25 inHg , 1024.4 hPa
Clouds: Clear
Visibility: 10 miles , 16 km
2021/09/20 04:53 KHVN 200453Z AUTO 00000KT 10SM CLR 14/12 A3025 RMK AO2 SLP243 T01390117 402560139
KBAF - Westfield, Massachusetts, USA
Distance from station: 0 33mi, 54km
Updated: Mon, 09/20/21 12:53am EDT
Clear
Clear
 Wind from calm
Wind: Calm
Temperature: 54°F , 12°C
Dew Point: 54°F , 12°C
Humidity: 100%
Barometer: 30.26 inHg , 1024.7 hPa
Clouds: Clear
Visibility: 10 miles , 16 km
2021/09/20 04:53 KBAF 200453Z AUTO 00000KT 10SM CLR 12/12 A3026 RMK AO2 SLP248 T01170117 402440117
 
KCEF - Chicopee/Westove, Massachusetts, USA
Distance from station: NNE 37mi, 60km
Updated: Mon, 09/20/21 12:56am EDT
Clear
Clear
 Wind from ENE
Wind: ENE 3 mph , 6 km/h
Temperature: 52°F , 11°C
Dew Point: 50°F , 10°C
Humidity: 94%
Barometer: 30.25 inHg , 1024.4 hPa
Clouds: Clear
Visibility: 10 miles , 16 km
2021/09/20 04:56 KCEF 200456Z AUTO 06003KT 10SM CLR 11/10 A3025 RMK AO2 SLP249 T01060104 402360104
KBDR - Bridgeport, Connecticut, USA
Distance from station: SSW 42mi, 67km
Updated: Mon, 09/20/21 12:52am EDT
Clear
Clear
 Wind from NNE
Wind: NNE 5 mph , 7 km/h
Temperature: 64°F , 18°C
Dew Point: 55°F , 13°C
Humidity: 73%
Barometer: 30.25 inHg , 1024.4 hPa
Clouds: Clear
Visibility: 10 miles , 16 km
2021/09/20 04:52 KBDR 200452Z AUTO 03004KT 10SM CLR 18/13 A3025 RMK AO2 SLP242 T01780128 402560167
 
KGON - Groton/New Londo, Connecticut, USA
Distance from station: SE 42mi, 68km
Updated: Mon, 09/20/21 12:56am EDT
Clear
Clear
 Wind from calm
Wind: Calm
Temperature: 55°F , 13°C
Dew Point: 55°F , 13°C
Humidity: 100%
Barometer: 30.26 inHg , 1024.7 hPa
Clouds: Clear
Visibility: 10 miles , 16 km
2021/09/20 04:56 KGON 200456Z AUTO 00000KT 10SM CLR 13/13 A3026 RMK AO2 SLP245 T01330128 402440133 $
KDXR - Danbury, Connecticut, USA
Distance from station: WSW 45mi, 73km
Updated: Mon, 09/20/21 12:53am EDT
Clear
Clear
 Wind from calm
Wind: Calm
Temperature: 55°F , 13°C
Dew Point: 54°F , 12°C
Humidity: 94%
Barometer: 30.27 inHg , 1025.1 hPa
Clouds: Clear
Visibility: 10 miles , 16 km
2021/09/20 04:53 KDXR 200453Z AUTO 00000KT 10SM CLR 13/12 A3027 RMK AO2 SLP249 T01280117 402500128